sensor_id;sensor_type;location;lat;lon;timestamp;pressure;altitude;pressure_sealevel;temperature;humidity
78717;BME280;68045;50.042;14.432;2023-08-24T00:03:30;98613.47;;;21.34;61.02
78717;BME280;68045;50.042;14.432;2023-08-24T00:07:31;98614.69;;;21.42;60.61
78717;BME280;68045;50.042;14.432;2023-08-24T00:11:33;98620.34;;;21.40;60.69
78717;BME280;68045;50.042;14.432;2023-08-24T00:15:33;98610.34;;;21.46;60.66
78717;BME280;68045;50.042;14.432;2023-08-24T00:19:34;98615.94;;;21.30;60.71
78717;BME280;68045;50.042;14.432;2023-08-24T00:23:35;98610.03;;;21.09;61.39
78717;BME280;68045;50.042;14.432;2023-08-24T00:27:36;98609.72;;;20.92;61.86
78717;BME280;68045;50.042;14.432;2023-08-24T00:31:38;98614.94;;;20.83;62.31
78717;BME280;68045;50.042;14.432;2023-08-24T00:35:39;98610.66;;;20.82;62.16
78717;BME280;68045;50.042;14.432;2023-08-24T00:39:39;98603.34;;;20.88;62.21
78717;BME280;68045;50.042;14.432;2023-08-24T00:43:40;98606.94;;;20.78;62.71
78717;BME280;68045;50.042;14.432;2023-08-24T00:47:46;98610.81;;;20.72;63.04
78717;BME280;68045;50.042;14.432;2023-08-24T00:51:47;98596.06;;;20.70;63.38
78717;BME280;68045;50.042;14.432;2023-08-24T00:55:48;98600.63;;;20.69;63.54
78717;BME280;68045;50.042;14.432;2023-08-24T00:59:49;98601.88;;;20.77;63.63
78717;BME280;68045;50.042;14.432;2023-08-24T01:03:50;98606.28;;;20.68;63.77
78717;BME280;68045;50.042;14.432;2023-08-24T01:07:51;98592.78;;;20.54;64.16
78717;BME280;68045;50.042;14.432;2023-08-24T01:12:05;98598.25;;;20.44;64.50
78717;BME280;68045;50.042;14.432;2023-08-24T01:16:18;98592.97;;;20.34;64.67
78717;BME280;68045;50.042;14.432;2023-08-24T01:20:20;98595.53;;;20.20;65.40
78717;BME280;68045;50.042;14.432;2023-08-24T01:24:31;98594.69;;;20.24;65.31
78717;BME280;68045;50.042;14.432;2023-08-24T01:28:37;98599.81;;;20.21;65.17
78717;BME280;68045;50.042;14.432;2023-08-24T01:32:38;98599.06;;;20.15;65.31
78717;BME280;68045;50.042;14.432;2023-08-24T01:36:39;98601.06;;;20.05;65.73
78717;BME280;68045;50.042;14.432;2023-08-24T01:44:49;98604.84;;;19.74;67.10
78717;BME280;68045;50.042;14.432;2023-08-24T01:48:52;98598.13;;;19.72;67.30
78717;BME280;68045;50.042;14.432;2023-08-24T01:52:53;98595.78;;;19.65;67.10
78717;BME280;68045;50.042;14.432;2023-08-24T01:56:54;98599.22;;;19.71;67.17
78717;BME280;68045;50.042;14.432;2023-08-24T02:00:55;98594.19;;;19.64;67.13
78717;BME280;68045;50.042;14.432;2023-08-24T02:04:56;98587.56;;;19.52;67.32
78717;BME280;68045;50.042;14.432;2023-08-24T02:08:57;98577.22;;;19.40;68.11
78717;BME280;68045;50.042;14.432;2023-08-24T02:12:58;98583.19;;;19.32;68.13
78717;BME280;68045;50.042;14.432;2023-08-24T02:16:59;98581.06;;;19.24;68.57
78717;BME280;68045;50.042;14.432;2023-08-24T02:20:59;98585.38;;;19.25;68.91
78717;BME280;68045;50.042;14.432;2023-08-24T02:25:00;98563.69;;;19.26;68.55
78717;BME280;68045;50.042;14.432;2023-08-24T02:29:03;98568.94;;;19.36;68.04
78717;BME280;68045;50.042;14.432;2023-08-24T02:33:04;98565.56;;;19.26;68.21
78717;BME280;68045;50.042;14.432;2023-08-24T02:37:05;98564.53;;;19.16;68.71
78717;BME280;68045;50.042;14.432;2023-08-24T02:41:07;98563.56;;;19.02;69.12
78717;BME280;68045;50.042;14.432;2023-08-24T02:45:09;98566.50;;;19.01;69.59
78717;BME280;68045;50.042;14.432;2023-08-24T02:49:10;98567.09;;;18.98;69.47
78717;BME280;68045;50.042;14.432;2023-08-24T02:53:10;98566.72;;;19.09;69.06
78717;BME280;68045;50.042;14.432;2023-08-24T02:57:12;98567.03;;;19.03;69.42
78717;BME280;68045;50.042;14.432;2023-08-24T03:01:14;98574.25;;;19.07;69.43
78717;BME280;68045;50.042;14.432;2023-08-24T03:05:15;98564.13;;;18.99;69.56
78717;BME280;68045;50.042;14.432;2023-08-24T03:09:16;98566.88;;;18.89;70.37
78717;BME280;68045;50.042;14.432;2023-08-24T03:13:17;98559.91;;;18.88;70.15
78717;BME280;68045;50.042;14.432;2023-08-24T03:17:18;98573.31;;;18.83;70.40
78717;BME280;68045;50.042;14.432;2023-08-24T03:21:19;98571.44;;;18.83;70.51
78717;BME280;68045;50.042;14.432;2023-08-24T03:25:20;98575.53;;;18.71;70.97
78717;BME280;68045;50.042;14.432;2023-08-24T03:29:21;98582.22;;;18.68;71.05
78717;BME280;68045;50.042;14.432;2023-08-24T03:33:22;98582.44;;;18.82;70.55
78717;BME280;68045;50.042;14.432;2023-08-24T03:37:23;98577.13;;;18.72;70.95
78717;BME280;68045;50.042;14.432;2023-08-24T03:41:24;98584.59;;;18.64;71.28
78717;BME280;68045;50.042;14.432;2023-08-24T03:45:25;98579.56;;;18.53;71.65
78717;BME280;68045;50.042;14.432;2023-08-24T03:49:26;98587.34;;;18.54;71.78
78717;BME280;68045;50.042;14.432;2023-08-24T03:53:27;98591.91;;;18.44;72.53
78717;BME280;68045;50.042;14.432;2023-08-24T03:57:27;98591.09;;;18.48;71.96
78717;BME280;68045;50.042;14.432;2023-08-24T04:01:28;98594.56;;;18.49;71.96
78717;BME280;68045;50.042;14.432;2023-08-24T04:05:30;98593.03;;;18.32;72.95
78717;BME280;68045;50.042;14.432;2023-08-24T04:09:30;98594.63;;;18.28;73.00
78717;BME280;68045;50.042;14.432;2023-08-24T04:13:31;98599.41;;;18.42;72.65
78717;BME280;68045;50.042;14.432;2023-08-24T04:17:32;98600.25;;;18.27;73.30
78717;BME280;68045;50.042;14.432;2023-08-24T04:21:32;98600.53;;;18.15;73.82
78717;BME280;68045;50.042;14.432;2023-08-24T04:25:33;98596.56;;;18.07;73.82
78717;BME280;68045;50.042;14.432;2023-08-24T04:29:34;98591.22;;;18.13;74.38
78717;BME280;68045;50.042;14.432;2023-08-24T04:33:35;98583.44;;;18.16;73.53
78717;BME280;68045;50.042;14.432;2023-08-24T04:37:36;98598.91;;;18.24;72.78
78717;BME280;68045;50.042;14.432;2023-08-24T04:41:37;98585.31;;;18.21;72.95
78717;BME280;68045;50.042;14.432;2023-08-24T04:45:38;98593.88;;;18.07;73.67
78717;BME280;68045;50.042;14.432;2023-08-24T04:49:39;98596.28;;;18.14;73.56
78717;BME280;68045;50.042;14.432;2023-08-24T04:53:40;98597.31;;;18.28;73.32
78717;BME280;68045;50.042;14.432;2023-08-24T04:57:40;98604.50;;;18.33;72.75
78717;BME280;68045;50.042;14.432;2023-08-24T05:01:42;98593.31;;;18.26;72.82
78717;BME280;68045;50.042;14.432;2023-08-24T05:05:45;98594.91;;;18.27;73.08
78717;BME280;68045;50.042;14.432;2023-08-24T05:09:46;98605.31;;;18.28;73.27
78717;BME280;68045;50.042;14.432;2023-08-24T05:13:47;98609.56;;;18.39;72.52
78717;BME280;68045;50.042;14.432;2023-08-24T05:17:48;98604.13;;;18.65;71.58
78717;BME280;68045;50.042;14.432;2023-08-24T05:21:49;98600.06;;;18.83;70.97
78717;BME280;68045;50.042;14.432;2023-08-24T05:25:49;98597.63;;;18.91;70.41
78717;BME280;68045;50.042;14.432;2023-08-24T05:29:50;98591.69;;;18.94;70.04
78717;BME280;68045;50.042;14.432;2023-08-24T05:33:51;98596.75;;;19.01;70.03
78717;BME280;68045;50.042;14.432;2023-08-24T05:37:52;98600.34;;;19.26;69.49
78717;BME280;68045;50.042;14.432;2023-08-24T05:41:53;98595.16;;;19.39;68.73
78717;BME280;68045;50.042;14.432;2023-08-24T05:45:54;98595.03;;;19.60;67.80
78717;BME280;68045;50.042;14.432;2023-08-24T05:49:55;98594.34;;;19.78;67.52
78717;BME280;68045;50.042;14.432;2023-08-24T05:53:55;98596.50;;;20.05;66.08
78717;BME280;68045;50.042;14.432;2023-08-24T05:57:59;98594.91;;;20.28;66.01
78717;BME280;68045;50.042;14.432;2023-08-24T06:02:00;98600.38;;;20.47;65.18
78717;BME280;68045;50.042;14.432;2023-08-24T06:06:02;98603.38;;;20.64;64.84
78717;BME280;68045;50.042;14.432;2023-08-24T06:10:04;98614.28;;;20.73;64.09
78717;BME280;68045;50.042;14.432;2023-08-24T06:14:06;98611.81;;;20.76;63.50
78717;BME280;68045;50.042;14.432;2023-08-24T06:18:07;98612.16;;;20.70;64.06
78717;BME280;68045;50.042;14.432;2023-08-24T06:22:07;98611.50;;;20.78;63.64
78717;BME280;68045;50.042;14.432;2023-08-24T06:26:08;98605.44;;;20.91;63.18
78717;BME280;68045;50.042;14.432;2023-08-24T06:30:09;98607.78;;;20.98;62.75
78717;BME280;68045;50.042;14.432;2023-08-24T06:34:10;98606.09;;;21.21;61.61
78717;BME280;68045;50.042;14.432;2023-08-24T06:38:11;98601.56;;;21.40;61.41
78717;BME280;68045;50.042;14.432;2023-08-24T06:42:12;98599.28;;;21.47;61.32
78717;BME280;68045;50.042;14.432;2023-08-24T06:46:15;98596.50;;;21.71;60.12
78717;BME280;68045;50.042;14.432;2023-08-24T06:50:16;98589.16;;;21.90;59.41
78717;BME280;68045;50.042;14.432;2023-08-24T06:54:17;98590.41;;;22.12;58.95
78717;BME280;68045;50.042;14.432;2023-08-24T06:58:18;98601.50;;;22.24;58.75
78717;BME280;68045;50.042;14.432;2023-08-24T07:02:19;98597.53;;;22.49;57.71
78717;BME280;68045;50.042;14.432;2023-08-24T07:06:20;98602.28;;;22.80;55.49
78717;BME280;68045;50.042;14.432;2023-08-24T07:10:21;98585.84;;;23.17;55.28
78717;BME280;68045;50.042;14.432;2023-08-24T07:14:22;98587.09;;;23.56;53.98
78717;BME280;68045;50.042;14.432;2023-08-24T07:18:23;98594.00;;;23.93;52.62
78717;BME280;68045;50.042;14.432;2023-08-24T07:22:24;98585.38;;;24.14;51.27
78717;BME280;68045;50.042;14.432;2023-08-24T07:26:27;98591.38;;;24.42;50.43
78717;BME280;68045;50.042;14.432;2023-08-24T07:30:28;98587.66;;;24.69;51.03
78717;BME280;68045;50.042;14.432;2023-08-24T07:34:29;98589.47;;;25.08;50.39
78717;BME280;68045;50.042;14.432;2023-08-24T07:38:30;98590.91;;;25.40;49.45
78717;BME280;68045;50.042;14.432;2023-08-24T07:42:42;98588.19;;;25.74;47.83
78717;BME280;68045;50.042;14.432;2023-08-24T07:46:44;98579.16;;;25.44;47.85
78717;BME280;68045;50.042;14.432;2023-08-24T07:50:44;98573.22;;;25.60;47.39
78717;BME280;68045;50.042;14.432;2023-08-24T07:54:47;98580.22;;;25.87;47.14
78717;BME280;68045;50.042;14.432;2023-08-24T07:58:48;98578.06;;;26.10;47.44
78717;BME280;68045;50.042;14.432;2023-08-24T08:02:51;98579.34;;;26.50;46.63
78717;BME280;68045;50.042;14.432;2023-08-24T08:06:53;98574.69;;;26.80;45.66
78717;BME280;68045;50.042;14.432;2023-08-24T08:10:58;98583.50;;;27.19;45.45
78717;BME280;68045;50.042;14.432;2023-08-24T08:15:00;98577.22;;;27.60;44.75
78717;BME280;68045;50.042;14.432;2023-08-24T08:19:01;98577.47;;;28.01;43.25
78717;BME280;68045;50.042;14.432;2023-08-24T08:23:02;98567.44;;;28.38;41.67
78717;BME280;68045;50.042;14.432;2023-08-24T08:27:04;98561.53;;;28.60;41.32
78717;BME280;68045;50.042;14.432;2023-08-24T08:31:04;98558.56;;;28.90;40.39
78717;BME280;68045;50.042;14.432;2023-08-24T08:35:05;98556.06;;;28.97;41.02
78717;BME280;68045;50.042;14.432;2023-08-24T08:39:06;98561.41;;;29.49;40.10
78717;BME280;68045;50.042;14.432;2023-08-24T08:43:08;98555.41;;;29.88;38.19
78717;BME280;68045;50.042;14.432;2023-08-24T08:47:11;98561.97;;;30.15;38.96
78717;BME280;68045;50.042;14.432;2023-08-24T08:51:13;98564.06;;;30.21;36.38
78717;BME280;68045;50.042;14.432;2023-08-24T08:55:15;98556.97;;;30.17;35.74
78717;BME280;68045;50.042;14.432;2023-08-24T08:59:17;98564.50;;;30.23;35.31
78717;BME280;68045;50.042;14.432;2023-08-24T09:03:18;98565.44;;;30.47;35.89
78717;BME280;68045;50.042;14.432;2023-08-24T09:07:22;98568.22;;;30.82;34.11
78717;BME280;68045;50.042;14.432;2023-08-24T09:11:24;98566.50;;;30.93;33.93
78717;BME280;68045;50.042;14.432;2023-08-24T09:15:34;98558.63;;;31.27;33.86
78717;BME280;68045;50.042;14.432;2023-08-24T09:19:36;98546.88;;;32.07;31.83
78717;BME280;68045;50.042;14.432;2023-08-24T09:23:52;98547.88;;;33.05;30.13
78717;BME280;68045;50.042;14.432;2023-08-24T09:28:00;98541.19;;;36.52;25.36
78717;BME280;68045;50.042;14.432;2023-08-24T09:32:01;98533.13;;;40.13;20.13
78717;BME280;68045;50.042;14.432;2023-08-24T09:36:05;98526.56;;;42.86;17.44
78717;BME280;68045;50.042;14.432;2023-08-24T09:40:07;98519.41;;;43.01;16.90
78717;BME280;68045;50.042;14.432;2023-08-24T09:44:08;98509.19;;;43.62;17.15
78717;BME280;68045;50.042;14.432;2023-08-24T09:48:09;98499.19;;;44.68;15.48
78717;BME280;68045;50.042;14.432;2023-08-24T09:52:10;98500.50;;;44.76;14.98
78717;BME280;68045;50.042;14.432;2023-08-24T09:56:14;98489.84;;;45.46;14.00
78717;BME280;68045;50.042;14.432;2023-08-24T10:00:16;98481.28;;;46.36;14.08
78717;BME280;68045;50.042;14.432;2023-08-24T10:04:21;98483.00;;;47.12;13.60
78717;BME280;68045;50.042;14.432;2023-08-24T10:08:27;98467.97;;;46.21;13.47
78717;BME280;68045;50.042;14.432;2023-08-24T10:12:32;98459.19;;;45.64;13.70
78717;BME280;68045;50.042;14.432;2023-08-24T10:16:37;98450.09;;;47.07;13.10
78717;BME280;68045;50.042;14.432;2023-08-24T10:20:39;98437.00;;;47.13;12.95
78717;BME280;68045;50.042;14.432;2023-08-24T10:24:42;98442.84;;;46.12;13.59
78717;BME280;68045;50.042;14.432;2023-08-24T10:28:44;98449.66;;;46.39;12.63
78717;BME280;68045;50.042;14.432;2023-08-24T10:32:46;98449.66;;;46.99;12.74
78717;BME280;68045;50.042;14.432;2023-08-24T10:36:48;98452.81;;;47.49;12.89
78717;BME280;68045;50.042;14.432;2023-08-24T10:40:50;98446.16;;;46.71;13.22
78717;BME280;68045;50.042;14.432;2023-08-24T10:44:51;98442.97;;;46.36;13.96
78717;BME280;68045;50.042;14.432;2023-08-24T10:48:58;98434.50;;;47.15;14.32
78717;BME280;68045;50.042;14.432;2023-08-24T10:53:00;98426.59;;;47.71;12.43
78717;BME280;68045;50.042;14.432;2023-08-24T10:57:02;98432.59;;;47.30;13.57
78717;BME280;68045;50.042;14.432;2023-08-24T11:01:03;98419.94;;;48.07;13.19
78717;BME280;68045;50.042;14.432;2023-08-24T11:05:34;98413.38;;;47.23;12.50
78717;BME280;68045;50.042;14.432;2023-08-24T11:09:46;98421.13;;;48.15;12.25
78717;BME280;68045;50.042;14.432;2023-08-24T11:14:13;98406.41;;;46.76;12.20
78717;BME280;68045;50.042;14.432;2023-08-24T11:22:18;98394.72;;;47.20;10.71
78717;BME280;68045;50.042;14.432;2023-08-24T11:26:19;98379.59;;;46.61;11.13
78717;BME280;68045;50.042;14.432;2023-08-24T11:30:20;98387.41;;;45.37;12.82
78717;BME280;68045;50.042;14.432;2023-08-24T11:34:20;98393.97;;;45.80;11.61
78717;BME280;68045;50.042;14.432;2023-08-24T11:38:21;98386.59;;;45.18;12.33
78717;BME280;68045;50.042;14.432;2023-08-24T11:42:22;98368.31;;;46.37;11.71
78717;BME280;68045;50.042;14.432;2023-08-24T11:46:23;98375.84;;;47.78;10.83
78717;BME280;68045;50.042;14.432;2023-08-24T11:50:24;98371.09;;;47.69;11.39
78717;BME280;68045;50.042;14.432;2023-08-24T11:54:25;98363.44;;;47.94;11.15
78717;BME280;68045;50.042;14.432;2023-08-24T11:58:26;98354.31;;;47.21;11.50
78717;BME280;68045;50.042;14.432;2023-08-24T12:02:27;98342.06;;;47.43;12.22
78717;BME280;68045;50.042;14.432;2023-08-24T12:06:28;98341.47;;;47.77;11.48
78717;BME280;68045;50.042;14.432;2023-08-24T12:10:30;98328.31;;;48.07;10.29
78717;BME280;68045;50.042;14.432;2023-08-24T12:14:44;98318.91;;;47.42;11.93
78717;BME280;68045;50.042;14.432;2023-08-24T12:18:56;98316.41;;;47.98;10.68
78717;BME280;68045;50.042;14.432;2023-08-24T12:23:00;98320.47;;;48.26;10.52
78717;BME280;68045;50.042;14.432;2023-08-24T12:27:01;98304.31;;;48.21;10.32
78717;BME280;68045;50.042;14.432;2023-08-24T12:31:04;98303.84;;;46.16;11.94
78717;BME280;68045;50.042;14.432;2023-08-24T12:35:05;98304.34;;;42.73;14.30
78717;BME280;68045;50.042;14.432;2023-08-24T12:39:06;98296.75;;;43.12;14.82
78717;BME280;68045;50.042;14.432;2023-08-24T12:43:11;98304.06;;;44.41;15.10
78717;BME280;68045;50.042;14.432;2023-08-24T12:47:11;98293.06;;;45.36;13.29
78717;BME280;68045;50.042;14.432;2023-08-24T12:51:13;98270.91;;;45.51;13.91
78717;BME280;68045;50.042;14.432;2023-08-24T12:55:13;98264.50;;;45.87;14.08
78717;BME280;68045;50.042;14.432;2023-08-24T12:59:14;98278.50;;;44.64;13.72
78717;BME280;68045;50.042;14.432;2023-08-24T13:03:15;98261.56;;;42.83;15.60
78717;BME280;68045;50.042;14.432;2023-08-24T13:07:15;98257.59;;;43.19;15.00
78717;BME280;68045;50.042;14.432;2023-08-24T13:11:16;98244.91;;;42.19;15.17
78717;BME280;68045;50.042;14.432;2023-08-24T13:15:17;98233.91;;;42.03;16.90
78717;BME280;68045;50.042;14.432;2023-08-24T13:19:18;98219.19;;;41.19;16.87
78717;BME280;68045;50.042;14.432;2023-08-24T13:23:19;98207.66;;;40.59;17.68
78717;BME280;68045;50.042;14.432;2023-08-24T13:27:21;98199.22;;;39.94;17.58
78717;BME280;68045;50.042;14.432;2023-08-24T13:31:22;98210.91;;;38.25;20.10
78717;BME280;68045;50.042;14.432;2023-08-24T13:35:23;98196.28;;;37.66;20.11
78717;BME280;68045;50.042;14.432;2023-08-24T13:39:27;98194.72;;;37.28;19.74
78717;BME280;68045;50.042;14.432;2023-08-24T13:43:31;98182.97;;;36.38;20.78
78717;BME280;68045;50.042;14.432;2023-08-24T13:47:32;98185.47;;;36.07;20.67
78717;BME280;68045;50.042;14.432;2023-08-24T13:51:33;98157.00;;;35.69;21.89
78717;BME280;68045;50.042;14.432;2023-08-24T13:55:34;98152.63;;;35.78;22.09
78717;BME280;68045;50.042;14.432;2023-08-24T13:59:34;98142.88;;;35.74;22.51
78717;BME280;68045;50.042;14.432;2023-08-24T14:03:36;98141.75;;;35.57;22.80
78717;BME280;68045;50.042;14.432;2023-08-24T14:07:39;98147.41;;;35.04;22.76
78717;BME280;68045;50.042;14.432;2023-08-24T14:11:39;98124.69;;;34.92;23.03
78717;BME280;68045;50.042;14.432;2023-08-24T14:15:41;98116.47;;;34.92;22.94
78717;BME280;68045;50.042;14.432;2023-08-24T14:19:42;98121.59;;;34.62;22.17
78717;BME280;68045;50.042;14.432;2023-08-24T14:23:43;98126.25;;;34.22;23.01
78717;BME280;68045;50.042;14.432;2023-08-24T14:27:44;98121.16;;;34.17;23.24
78717;BME280;68045;50.042;14.432;2023-08-24T14:31:45;98113.72;;;34.14;24.84
78717;BME280;68045;50.042;14.432;2023-08-24T14:35:53;98102.78;;;34.14;24.43
78717;BME280;68045;50.042;14.432;2023-08-24T14:39:54;98101.13;;;33.81;23.22
78717;BME280;68045;50.042;14.432;2023-08-24T14:43:55;98109.56;;;33.37;23.71
78717;BME280;68045;50.042;14.432;2023-08-24T14:47:55;98106.72;;;33.08;23.79
78717;BME280;68045;50.042;14.432;2023-08-24T14:51:56;98100.47;;;33.11;24.41
78717;BME280;68045;50.042;14.432;2023-08-24T14:55:58;98089.59;;;33.22;24.78
78717;BME280;68045;50.042;14.432;2023-08-24T14:59:59;98091.16;;;33.33;24.13
78717;BME280;68045;50.042;14.432;2023-08-24T15:04:00;98085.19;;;33.03;24.71
78717;BME280;68045;50.042;14.432;2023-08-24T15:08:01;98083.84;;;32.75;25.30
78717;BME280;68045;50.042;14.432;2023-08-24T15:12:03;98080.34;;;32.78;25.72
78717;BME280;68045;50.042;14.432;2023-08-24T15:16:04;98082.69;;;32.80;25.11
78717;BME280;68045;50.042;14.432;2023-08-24T15:20:06;98075.66;;;32.83;25.14
78717;BME280;68045;50.042;14.432;2023-08-24T15:24:06;98081.56;;;32.85;25.34
78717;BME280;68045;50.042;14.432;2023-08-24T15:28:07;98078.91;;;32.92;25.29
78717;BME280;68045;50.042;14.432;2023-08-24T15:32:08;98070.72;;;32.99;25.40
78717;BME280;68045;50.042;14.432;2023-08-24T15:36:09;98071.47;;;32.92;25.97
78717;BME280;68045;50.042;14.432;2023-08-24T15:40:10;98063.69;;;33.01;25.41
78717;BME280;68045;50.042;14.432;2023-08-24T15:44:11;98060.22;;;33.12;25.89
78717;BME280;68045;50.042;14.432;2023-08-24T15:48:12;98064.09;;;33.03;26.25
78717;BME280;68045;50.042;14.432;2023-08-24T15:52:13;98056.25;;;32.98;25.40
78717;BME280;68045;50.042;14.432;2023-08-24T15:56:14;98051.94;;;32.97;25.96
78717;BME280;68045;50.042;14.432;2023-08-24T16:00:15;98050.00;;;32.94;25.74
78717;BME280;68045;50.042;14.432;2023-08-24T16:04:16;98048.38;;;32.86;26.89
78717;BME280;68045;50.042;14.432;2023-08-24T16:08:16;98047.50;;;32.71;27.44
78717;BME280;68045;50.042;14.432;2023-08-24T16:12:18;98038.09;;;32.65;27.50
78717;BME280;68045;50.042;14.432;2023-08-24T16:16:18;98050.59;;;32.66;28.29
78717;BME280;68045;50.042;14.432;2023-08-24T16:20:19;98040.78;;;32.62;27.71
78717;BME280;68045;50.042;14.432;2023-08-24T16:24:20;98043.16;;;32.63;28.45
78717;BME280;68045;50.042;14.432;2023-08-24T16:28:21;98030.53;;;32.44;28.90
78717;BME280;68045;50.042;14.432;2023-08-24T16:32:23;98028.16;;;32.36;28.98
78717;BME280;68045;50.042;14.432;2023-08-24T16:36:24;98021.00;;;32.28;28.63
78717;BME280;68045;50.042;14.432;2023-08-24T16:40:26;98026.75;;;32.12;29.13
78717;BME280;68045;50.042;14.432;2023-08-24T16:44:26;98013.50;;;32.10;29.78
78717;BME280;68045;50.042;14.432;2023-08-24T16:48:27;98003.97;;;31.90;29.57
78717;BME280;68045;50.042;14.432;2023-08-24T16:52:28;97993.38;;;31.81;30.13
78717;BME280;68045;50.042;14.432;2023-08-24T16:56:29;97990.94;;;31.73;30.16
78717;BME280;68045;50.042;14.432;2023-08-24T17:00:31;97997.38;;;31.57;30.46
78717;BME280;68045;50.042;14.432;2023-08-24T17:04:32;97988.66;;;31.41;31.16
78717;BME280;68045;50.042;14.432;2023-08-24T17:08:33;97981.50;;;31.26;31.25
78717;BME280;68045;50.042;14.432;2023-08-24T17:12:34;98004.63;;;31.05;31.41
78717;BME280;68045;50.042;14.432;2023-08-24T17:16:35;97999.38;;;30.89;32.45
78717;BME280;68045;50.042;14.432;2023-08-24T17:20:37;97997.28;;;30.79;33.04
78717;BME280;68045;50.042;14.432;2023-08-24T17:24:38;97999.56;;;30.74;33.35
78717;BME280;68045;50.042;14.432;2023-08-24T17:28:39;98016.38;;;30.53;34.26
78717;BME280;68045;50.042;14.432;2023-08-24T17:32:40;98017.63;;;30.32;34.74
78717;BME280;68045;50.042;14.432;2023-08-24T17:36:41;98019.47;;;30.25;34.75
78717;BME280;68045;50.042;14.432;2023-08-24T17:40:42;98018.09;;;30.12;35.35
78717;BME280;68045;50.042;14.432;2023-08-24T17:44:42;98017.88;;;30.01;35.36
78717;BME280;68045;50.042;14.432;2023-08-24T17:48:43;98025.69;;;29.79;35.85
78717;BME280;68045;50.042;14.432;2023-08-24T17:52:44;98020.88;;;29.69;36.27
78717;BME280;68045;50.042;14.432;2023-08-24T17:56:45;98020.31;;;29.60;36.80
78717;BME280;68045;50.042;14.432;2023-08-24T18:00:46;98023.28;;;29.32;37.35
78717;BME280;68045;50.042;14.432;2023-08-24T18:04:47;98031.22;;;29.21;37.84
78717;BME280;68045;50.042;14.432;2023-08-24T18:08:48;98050.47;;;29.13;38.23
78717;BME280;68045;50.042;14.432;2023-08-24T18:12:49;98057.44;;;28.94;38.67
78717;BME280;68045;50.042;14.432;2023-08-24T18:16:49;98045.03;;;28.78;39.25
78717;BME280;68045;50.042;14.432;2023-08-24T18:20:50;98045.94;;;28.66;39.54
78717;BME280;68045;50.042;14.432;2023-08-24T18:24:51;98054.81;;;28.63;39.70
78717;BME280;68045;50.042;14.432;2023-08-24T18:28:52;98051.00;;;28.48;40.41
78717;BME280;68045;50.042;14.432;2023-08-24T18:32:53;98040.72;;;28.26;40.84
78717;BME280;68045;50.042;14.432;2023-08-24T18:36:53;98032.69;;;28.13;41.21
78717;BME280;68045;50.042;14.432;2023-08-24T18:40:54;98040.97;;;28.05;41.20
78717;BME280;68045;50.042;14.432;2023-08-24T18:44:55;98045.19;;;28.02;41.64
78717;BME280;68045;50.042;14.432;2023-08-24T18:48:56;98049.47;;;27.87;42.09
78717;BME280;68045;50.042;14.432;2023-08-24T18:52:56;98049.41;;;27.84;41.94
78717;BME280;68045;50.042;14.432;2023-08-24T18:56:57;98048.69;;;27.71;42.18
78717;BME280;68045;50.042;14.432;2023-08-24T19:01:00;98051.00;;;27.57;42.91
78717;BME280;68045;50.042;14.432;2023-08-24T19:05:01;98054.13;;;27.59;42.95
78717;BME280;68045;50.042;14.432;2023-08-24T19:09:03;98058.16;;;27.49;42.93
78717;BME280;68045;50.042;14.432;2023-08-24T19:13:04;98055.50;;;27.37;43.30
78717;BME280;68045;50.042;14.432;2023-08-24T19:17:05;98038.47;;;27.24;44.02
78717;BME280;68045;50.042;14.432;2023-08-24T19:21:06;98045.06;;;27.11;44.78
78717;BME280;68045;50.042;14.432;2023-08-24T19:25:09;98036.44;;;26.93;45.53
78717;BME280;68045;50.042;14.432;2023-08-24T19:29:10;98033.63;;;26.77;45.40
78717;BME280;68045;50.042;14.432;2023-08-24T19:33:11;98026.41;;;26.69;45.73
78717;BME280;68045;50.042;14.432;2023-08-24T19:37:12;98028.13;;;26.62;46.06
78717;BME280;68045;50.042;14.432;2023-08-24T19:41:13;98027.69;;;26.60;46.01
78717;BME280;68045;50.042;14.432;2023-08-24T19:45:13;98022.41;;;26.51;46.35
78717;BME280;68045;50.042;14.432;2023-08-24T19:49:14;98006.59;;;26.41;46.59
78717;BME280;68045;50.042;14.432;2023-08-24T19:53:15;97991.81;;;26.38;46.61
78717;BME280;68045;50.042;14.432;2023-08-24T19:57:16;97982.56;;;26.27;46.85
78717;BME280;68045;50.042;14.432;2023-08-24T20:01:17;97980.13;;;26.22;47.26
78717;BME280;68045;50.042;14.432;2023-08-24T20:05:18;97983.63;;;26.22;47.14
78717;BME280;68045;50.042;14.432;2023-08-24T20:09:19;97977.41;;;26.22;47.81
78717;BME280;68045;50.042;14.432;2023-08-24T20:13:20;97970.31;;;26.17;47.27
78717;BME280;68045;50.042;14.432;2023-08-24T20:17:21;97950.00;;;26.11;47.35
78717;BME280;68045;50.042;14.432;2023-08-24T20:21:24;97945.94;;;26.05;47.16
78717;BME280;68045;50.042;14.432;2023-08-24T20:25:25;97931.66;;;26.05;47.85
78717;BME280;68045;50.042;14.432;2023-08-24T20:29:25;97929.63;;;26.01;47.67
78717;BME280;68045;50.042;14.432;2023-08-24T20:33:27;97898.28;;;26.00;47.80
78717;BME280;68045;50.042;14.432;2023-08-24T20:37:28;97894.34;;;25.98;47.59
78717;BME280;68045;50.042;14.432;2023-08-24T20:41:29;97879.25;;;25.97;47.34
78717;BME280;68045;50.042;14.432;2023-08-24T20:45:30;97872.03;;;25.89;47.46
78717;BME280;68045;50.042;14.432;2023-08-24T20:49:30;97848.16;;;25.79;47.45
78717;BME280;68045;50.042;14.432;2023-08-24T20:53:31;97828.34;;;25.74;47.15
78717;BME280;68045;50.042;14.432;2023-08-24T20:57:32;97813.44;;;25.68;47.88
78717;BME280;68045;50.042;14.432;2023-08-24T21:01:34;97826.84;;;25.65;47.48
78717;BME280;68045;50.042;14.432;2023-08-24T21:05:35;97855.13;;;25.67;47.66
78717;BME280;68045;50.042;14.432;2023-08-24T21:09:35;97884.97;;;25.71;47.34
78717;BME280;68045;50.042;14.432;2023-08-24T21:13:36;97881.97;;;25.72;48.10